Doole, Texas
Current Conditions -  °F | °C
As of 12:35 AM on Wednesday 26 Nov 2014 (Local Time) from KBBD Reporting Station
Clear Clear  
Wind Chill: 34°   Ceiling: Unl
Heat Index: 39°   Visibility: 10mi
Dew Point: 25°   Wind: 8mph
Humidity: 56%   Direction: 200°SSW
Pressure: 30.14"   Gusts: NA
Location:  31.4°N, 99.6°W
Report Text: KBBD 260635Z AUTO 20007KT 10SM CLR 04/M04 A3014 RMK
Loading
Personal Weather Stations






























Interactive Weather Map New forecast layout! Learn more

10-Day Weather Forecast

Advertisements
Track Severe Weather on mobile